sensor_id;sensor_type;location;lat;lon;timestamp;P1;durP1;ratioP1;P2;durP2;ratioP2
45642;SDS011;31358;46.008;11.144;2024-03-25T00:00:39;0.35;;;0.20;;
45642;SDS011;31358;46.008;11.144;2024-03-25T00:03:05;1.88;;;0.38;;
45642;SDS011;31358;46.008;11.144;2024-03-25T00:05:30;0.88;;;0.43;;
45642;SDS011;31358;46.008;11.144;2024-03-25T00:07:57;1.10;;;0.32;;
45642;SDS011;31358;46.008;11.144;2024-03-25T00:10:23;0.85;;;0.32;;
45642;SDS011;31358;46.008;11.144;2024-03-25T00:12:49;0.45;;;0.17;;
45642;SDS011;31358;46.008;11.144;2024-03-25T00:15:19;0.75;;;0.22;;
45642;SDS011;31358;46.008;11.144;2024-03-25T00:17:48;0.98;;;0.32;;
45642;SDS011;31358;46.008;11.144;2024-03-25T00:20:15;0.50;;;0.20;;
45642;SDS011;31358;46.008;11.144;2024-03-25T00:22:41;0.82;;;0.13;;
45642;SDS011;31358;46.008;11.144;2024-03-25T00:25:07;0.43;;;0.30;;
45642;SDS011;31358;46.008;11.144;2024-03-25T00:27:33;0.65;;;0.30;;
45642;SDS011;31358;46.008;11.144;2024-03-25T00:29:59;0.75;;;0.20;;
45642;SDS011;31358;46.008;11.144;2024-03-25T00:32:24;0.35;;;0.30;;
45642;SDS011;31358;46.008;11.144;2024-03-25T00:34:50;2.20;;;0.20;;
45642;SDS011;31358;46.008;11.144;2024-03-25T00:37:16;1.20;;;0.15;;
45642;SDS011;31358;46.008;11.144;2024-03-25T00:39:41;0.68;;;0.32;;
45642;SDS011;31358;46.008;11.144;2024-03-25T00:42:07;0.57;;;0.30;;
45642;SDS011;31358;46.008;11.144;2024-03-25T00:44:32;0.68;;;0.20;;
45642;SDS011;31358;46.008;11.144;2024-03-25T00:46:58;3.35;;;0.57;;
45642;SDS011;31358;46.008;11.144;2024-03-25T00:49:24;1.45;;;0.52;;
45642;SDS011;31358;46.008;11.144;2024-03-25T00:51:49;0.90;;;0.20;;
45642;SDS011;31358;46.008;11.144;2024-03-25T00:54:15;1.65;;;0.55;;
45642;SDS011;31358;46.008;11.144;2024-03-25T00:56:40;1.10;;;0.20;;
45642;SDS011;31358;46.008;11.144;2024-03-25T00:59:06;0.50;;;0.25;;
45642;SDS011;31358;46.008;11.144;2024-03-25T01:01:32;0.90;;;0.30;;
45642;SDS011;31358;46.008;11.144;2024-03-25T01:03:58;1.83;;;0.30;;
45642;SDS011;31358;46.008;11.144;2024-03-25T01:06:24;0.57;;;0.22;;
45642;SDS011;31358;46.008;11.144;2024-03-25T01:08:50;1.92;;;0.43;;
45642;SDS011;31358;46.008;11.144;2024-03-25T01:11:15;1.75;;;0.20;;
45642;SDS011;31358;46.008;11.144;2024-03-25T01:13:41;0.73;;;0.25;;
45642;SDS011;31358;46.008;11.144;2024-03-25T01:16:07;0.38;;;0.25;;
45642;SDS011;31358;46.008;11.144;2024-03-25T01:18:33;0.77;;;0.30;;
45642;SDS011;31358;46.008;11.144;2024-03-25T01:20:59;1.27;;;0.40;;
45642;SDS011;31358;46.008;11.144;2024-03-25T01:23:25;1.10;;;0.55;;
45642;SDS011;31358;46.008;11.144;2024-03-25T01:25:50;1.55;;;0.45;;
45642;SDS011;31358;46.008;11.144;2024-03-25T01:28:16;0.80;;;0.30;;
45642;SDS011;31358;46.008;11.144;2024-03-25T01:30:42;1.13;;;0.50;;
45642;SDS011;31358;46.008;11.144;2024-03-25T01:33:08;1.25;;;0.40;;
45642;SDS011;31358;46.008;11.144;2024-03-25T01:35:34;2.20;;;0.70;;
45642;SDS011;31358;46.008;11.144;2024-03-25T01:38:00;0.43;;;0.20;;
45642;SDS011;31358;46.008;11.144;2024-03-25T01:40:26;1.05;;;0.43;;
45642;SDS011;31358;46.008;11.144;2024-03-25T01:42:55;0.43;;;0.20;;
45642;SDS011;31358;46.008;11.144;2024-03-25T01:45:21;2.75;;;0.68;;
45642;SDS011;31358;46.008;11.144;2024-03-25T01:47:47;0.90;;;0.40;;
45642;SDS011;31358;46.008;11.144;2024-03-25T01:50:12;1.10;;;0.40;;
45642;SDS011;31358;46.008;11.144;2024-03-25T01:52:39;1.80;;;0.50;;
45642;SDS011;31358;46.008;11.144;2024-03-25T01:55:06;1.27;;;0.50;;
45642;SDS011;31358;46.008;11.144;2024-03-25T01:57:36;0.70;;;0.30;;
45642;SDS011;31358;46.008;11.144;2024-03-25T02:00:03;0.93;;;0.35;;
45642;SDS011;31358;46.008;11.144;2024-03-25T02:02:30;0.98;;;0.25;;
45642;SDS011;31358;46.008;11.144;2024-03-25T02:04:58;1.60;;;0.47;;
45642;SDS011;31358;46.008;11.144;2024-03-25T02:07:24;1.17;;;0.40;;
45642;SDS011;31358;46.008;11.144;2024-03-25T02:09:51;0.95;;;0.32;;
45642;SDS011;31358;46.008;11.144;2024-03-25T02:12:17;0.75;;;0.38;;
45642;SDS011;31358;46.008;11.144;2024-03-25T02:14:43;1.40;;;0.50;;
45642;SDS011;31358;46.008;11.144;2024-03-25T02:17:09;1.08;;;0.35;;
45642;SDS011;31358;46.008;11.144;2024-03-25T02:19:35;0.28;;;0.28;;
45642;SDS011;31358;46.008;11.144;2024-03-25T02:22:02;0.28;;;0.17;;
45642;SDS011;31358;46.008;11.144;2024-03-25T02:24:28;1.05;;;0.32;;
45642;SDS011;31358;46.008;11.144;2024-03-25T02:26:56;1.77;;;0.30;;
45642;SDS011;31358;46.008;11.144;2024-03-25T02:29:21;1.05;;;0.40;;
45642;SDS011;31358;46.008;11.144;2024-03-25T02:31:47;1.15;;;0.30;;
45642;SDS011;31358;46.008;11.144;2024-03-25T02:34:13;0.75;;;0.40;;
45642;SDS011;31358;46.008;11.144;2024-03-25T02:36:38;1.23;;;0.40;;
45642;SDS011;31358;46.008;11.144;2024-03-25T02:39:05;1.35;;;0.22;;
45642;SDS011;31358;46.008;11.144;2024-03-25T02:41:31;1.85;;;0.50;;
45642;SDS011;31358;46.008;11.144;2024-03-25T02:43:56;2.17;;;0.38;;
45642;SDS011;31358;46.008;11.144;2024-03-25T02:46:22;0.80;;;0.40;;
45642;SDS011;31358;46.008;11.144;2024-03-25T02:48:48;2.42;;;0.60;;
45642;SDS011;31358;46.008;11.144;2024-03-25T02:51:13;0.77;;;0.40;;
45642;SDS011;31358;46.008;11.144;2024-03-25T02:53:39;0.88;;;0.40;;
45642;SDS011;31358;46.008;11.144;2024-03-25T02:56:04;1.98;;;0.63;;
45642;SDS011;31358;46.008;11.144;2024-03-25T02:58:30;1.45;;;0.70;;
45642;SDS011;31358;46.008;11.144;2024-03-25T03:00:56;1.20;;;0.40;;
45642;SDS011;31358;46.008;11.144;2024-03-25T03:03:21;0.63;;;0.30;;
45642;SDS011;31358;46.008;11.144;2024-03-25T03:05:47;1.33;;;0.38;;
45642;SDS011;31358;46.008;11.144;2024-03-25T03:08:13;1.23;;;0.50;;
45642;SDS011;31358;46.008;11.144;2024-03-25T03:10:38;1.45;;;0.40;;
45642;SDS011;31358;46.008;11.144;2024-03-25T03:13:04;1.38;;;0.52;;
45642;SDS011;31358;46.008;11.144;2024-03-25T03:15:29;1.15;;;0.57;;
45642;SDS011;31358;46.008;11.144;2024-03-25T03:17:55;0.55;;;0.35;;
45642;SDS011;31358;46.008;11.144;2024-03-25T03:20:20;0.93;;;0.32;;
45642;SDS011;31358;46.008;11.144;2024-03-25T03:22:46;1.85;;;0.43;;
45642;SDS011;31358;46.008;11.144;2024-03-25T03:25:12;1.80;;;0.57;;
45642;SDS011;31358;46.008;11.144;2024-03-25T03:27:37;0.32;;;0.20;;
45642;SDS011;31358;46.008;11.144;2024-03-25T03:30:03;1.30;;;0.47;;
45642;SDS011;31358;46.008;11.144;2024-03-25T03:32:29;1.10;;;0.30;;
45642;SDS011;31358;46.008;11.144;2024-03-25T03:34:55;1.00;;;0.35;;
45642;SDS011;31358;46.008;11.144;2024-03-25T03:37:20;3.65;;;0.43;;
45642;SDS011;31358;46.008;11.144;2024-03-25T03:39:46;1.25;;;0.50;;
45642;SDS011;31358;46.008;11.144;2024-03-25T03:42:11;1.38;;;0.40;;
45642;SDS011;31358;46.008;11.144;2024-03-25T03:44:37;0.25;;;0.17;;
45642;SDS011;31358;46.008;11.144;2024-03-25T03:47:03;1.60;;;0.55;;
45642;SDS011;31358;46.008;11.144;2024-03-25T03:49:28;0.50;;;0.28;;
45642;SDS011;31358;46.008;11.144;2024-03-25T03:51:54;0.73;;;0.40;;
45642;SDS011;31358;46.008;11.144;2024-03-25T03:54:20;0.95;;;0.35;;
45642;SDS011;31358;46.008;11.144;2024-03-25T03:56:45;0.73;;;0.20;;
45642;SDS011;31358;46.008;11.144;2024-03-25T03:59:11;1.58;;;0.40;;
45642;SDS011;31358;46.008;11.144;2024-03-25T04:01:36;2.60;;;0.47;;
45642;SDS011;31358;46.008;11.144;2024-03-25T04:04:02;1.15;;;0.32;;
45642;SDS011;31358;46.008;11.144;2024-03-25T04:06:28;1.05;;;0.40;;
45642;SDS011;31358;46.008;11.144;2024-03-25T04:08:53;1.42;;;0.50;;
45642;SDS011;31358;46.008;11.144;2024-03-25T04:11:19;0.57;;;0.35;;
45642;SDS011;31358;46.008;11.144;2024-03-25T04:13:46;3.00;;;0.73;;
45642;SDS011;31358;46.008;11.144;2024-03-25T04:16:12;1.27;;;0.40;;
45642;SDS011;31358;46.008;11.144;2024-03-25T04:18:37;0.98;;;0.40;;
45642;SDS011;31358;46.008;11.144;2024-03-25T04:21:03;1.13;;;0.40;;
45642;SDS011;31358;46.008;11.144;2024-03-25T04:23:29;1.33;;;0.60;;
45642;SDS011;31358;46.008;11.144;2024-03-25T04:25:55;2.47;;;0.60;;
45642;SDS011;31358;46.008;11.144;2024-03-25T04:28:20;1.75;;;0.60;;
45642;SDS011;31358;46.008;11.144;2024-03-25T04:30:51;0.90;;;0.30;;
45642;SDS011;31358;46.008;11.144;2024-03-25T04:33:17;0.30;;;0.20;;
45642;SDS011;31358;46.008;11.144;2024-03-25T04:35:43;0.95;;;0.60;;
45642;SDS011;31358;46.008;11.144;2024-03-25T04:38:10;2.42;;;0.50;;
45642;SDS011;31358;46.008;11.144;2024-03-25T04:40:35;1.40;;;0.40;;
45642;SDS011;31358;46.008;11.144;2024-03-25T04:43:01;0.28;;;0.20;;
45642;SDS011;31358;46.008;11.144;2024-03-25T04:45:27;1.95;;;0.40;;
45642;SDS011;31358;46.008;11.144;2024-03-25T04:47:53;0.80;;;0.40;;
45642;SDS011;31358;46.008;11.144;2024-03-25T04:50:18;0.82;;;0.30;;
45642;SDS011;31358;46.008;11.144;2024-03-25T04:52:44;0.73;;;0.50;;
45642;SDS011;31358;46.008;11.144;2024-03-25T04:55:10;1.77;;;0.40;;
45642;SDS011;31358;46.008;11.144;2024-03-25T04:57:35;1.55;;;0.50;;
45642;SDS011;31358;46.008;11.144;2024-03-25T05:00:01;1.13;;;0.32;;
45642;SDS011;31358;46.008;11.144;2024-03-25T05:02:27;0.98;;;0.50;;
45642;SDS011;31358;46.008;11.144;2024-03-25T05:04:53;0.30;;;0.13;;
45642;SDS011;31358;46.008;11.144;2024-03-25T05:07:19;2.28;;;0.80;;
45642;SDS011;31358;46.008;11.144;2024-03-25T05:09:44;1.23;;;0.40;;
45642;SDS011;31358;46.008;11.144;2024-03-25T05:12:10;2.40;;;0.63;;
45642;SDS011;31358;46.008;11.144;2024-03-25T05:14:36;1.27;;;0.52;;
45642;SDS011;31358;46.008;11.144;2024-03-25T05:17:01;0.22;;;0.20;;
45642;SDS011;31358;46.008;11.144;2024-03-25T05:19:29;0.88;;;0.50;;
45642;SDS011;31358;46.008;11.144;2024-03-25T05:21:54;1.13;;;0.50;;
45642;SDS011;31358;46.008;11.144;2024-03-25T05:24:20;0.88;;;0.40;;
45642;SDS011;31358;46.008;11.144;2024-03-25T05:26:46;1.38;;;0.73;;
45642;SDS011;31358;46.008;11.144;2024-03-25T05:29:11;2.25;;;0.68;;
45642;SDS011;31358;46.008;11.144;2024-03-25T05:31:38;1.70;;;0.77;;
45642;SDS011;31358;46.008;11.144;2024-03-25T05:34:04;0.88;;;0.40;;
45642;SDS011;31358;46.008;11.144;2024-03-25T05:36:33;1.23;;;0.35;;
45642;SDS011;31358;46.008;11.144;2024-03-25T05:38:59;1.15;;;0.47;;
45642;SDS011;31358;46.008;11.144;2024-03-25T05:41:25;1.33;;;0.45;;
45642;SDS011;31358;46.008;11.144;2024-03-25T05:43:50;0.70;;;0.38;;
45642;SDS011;31358;46.008;11.144;2024-03-25T05:46:16;1.15;;;0.40;;
45642;SDS011;31358;46.008;11.144;2024-03-25T05:48:41;1.13;;;0.50;;
45642;SDS011;31358;46.008;11.144;2024-03-25T05:51:08;0.80;;;0.28;;
45642;SDS011;31358;46.008;11.144;2024-03-25T05:53:33;1.58;;;0.70;;
45642;SDS011;31358;46.008;11.144;2024-03-25T05:55:59;1.15;;;0.40;;
45642;SDS011;31358;46.008;11.144;2024-03-25T05:58:25;0.93;;;0.38;;
45642;SDS011;31358;46.008;11.144;2024-03-25T06:00:51;1.30;;;0.50;;
45642;SDS011;31358;46.008;11.144;2024-03-25T06:03:20;2.03;;;0.60;;
45642;SDS011;31358;46.008;11.144;2024-03-25T06:05:47;1.52;;;0.30;;
45642;SDS011;31358;46.008;11.144;2024-03-25T06:08:13;1.05;;;0.40;;
45642;SDS011;31358;46.008;11.144;2024-03-25T06:10:51;1.20;;;0.60;;
45642;SDS011;31358;46.008;11.144;2024-03-25T06:13:17;1.00;;;0.35;;
45642;SDS011;31358;46.008;11.144;2024-03-25T06:15:42;1.85;;;0.50;;
45642;SDS011;31358;46.008;11.144;2024-03-25T06:18:08;0.50;;;0.30;;
45642;SDS011;31358;46.008;11.144;2024-03-25T06:20:34;1.25;;;0.38;;
45642;SDS011;31358;46.008;11.144;2024-03-25T06:22:59;0.88;;;0.50;;
45642;SDS011;31358;46.008;11.144;2024-03-25T06:25:26;0.80;;;0.35;;
45642;SDS011;31358;46.008;11.144;2024-03-25T06:27:52;0.40;;;0.28;;
45642;SDS011;31358;46.008;11.144;2024-03-25T06:30:17;1.50;;;0.50;;
45642;SDS011;31358;46.008;11.144;2024-03-25T06:33:01;3.92;;;0.35;;
45642;SDS011;31358;46.008;11.144;2024-03-25T06:35:45;1.13;;;0.52;;
45642;SDS011;31358;46.008;11.144;2024-03-25T06:38:11;1.15;;;0.45;;
45642;SDS011;31358;46.008;11.144;2024-03-25T06:40:37;0.80;;;0.32;;
45642;SDS011;31358;46.008;11.144;2024-03-25T06:43:03;1.52;;;0.50;;
45642;SDS011;31358;46.008;11.144;2024-03-25T06:45:29;0.93;;;0.50;;
45642;SDS011;31358;46.008;11.144;2024-03-25T06:47:55;1.10;;;0.60;;
45642;SDS011;31358;46.008;11.144;2024-03-25T06:50:20;1.35;;;0.45;;
45642;SDS011;31358;46.008;11.144;2024-03-25T06:52:46;0.57;;;0.30;;
45642;SDS011;31358;46.008;11.144;2024-03-25T06:55:12;1.90;;;0.65;;
45642;SDS011;31358;46.008;11.144;2024-03-25T06:57:38;0.68;;;0.30;;
45642;SDS011;31358;46.008;11.144;2024-03-25T07:00:03;0.55;;;0.20;;
45642;SDS011;31358;46.008;11.144;2024-03-25T07:02:35;1.20;;;0.52;;
45642;SDS011;31358;46.008;11.144;2024-03-25T07:05:00;1.25;;;0.43;;
45642;SDS011;31358;46.008;11.144;2024-03-25T07:07:26;1.40;;;0.50;;
45642;SDS011;31358;46.008;11.144;2024-03-25T07:09:51;1.13;;;0.43;;
45642;SDS011;31358;46.008;11.144;2024-03-25T07:12:17;1.92;;;0.60;;
45642;SDS011;31358;46.008;11.144;2024-03-25T07:14:43;1.65;;;0.52;;
45642;SDS011;31358;46.008;11.144;2024-03-25T07:17:09;1.77;;;0.52;;
45642;SDS011;31358;46.008;11.144;2024-03-25T07:19:34;0.63;;;0.22;;
45642;SDS011;31358;46.008;11.144;2024-03-25T07:22:00;1.13;;;0.40;;
45642;SDS011;31358;46.008;11.144;2024-03-25T07:24:26;1.23;;;0.50;;
45642;SDS011;31358;46.008;11.144;2024-03-25T07:26:51;1.77;;;0.47;;
45642;SDS011;31358;46.008;11.144;2024-03-25T07:29:17;2.35;;;0.55;;
45642;SDS011;31358;46.008;11.144;2024-03-25T07:31:43;1.23;;;0.25;;
45642;SDS011;31358;46.008;11.144;2024-03-25T07:34:08;1.23;;;0.50;;
45642;SDS011;31358;46.008;11.144;2024-03-25T07:36:36;1.38;;;0.60;;
45642;SDS011;31358;46.008;11.144;2024-03-25T07:39:03;1.45;;;0.43;;
45642;SDS011;31358;46.008;11.144;2024-03-25T07:41:31;1.17;;;0.43;;
45642;SDS011;31358;46.008;11.144;2024-03-25T07:43:56;3.67;;;0.60;;
45642;SDS011;31358;46.008;11.144;2024-03-25T07:46:22;1.20;;;0.55;;
45642;SDS011;31358;46.008;11.144;2024-03-25T07:48:48;0.52;;;0.30;;
45642;SDS011;31358;46.008;11.144;2024-03-25T07:51:13;2.05;;;0.60;;
45642;SDS011;31358;46.008;11.144;2024-03-25T07:53:39;1.95;;;0.52;;
45642;SDS011;31358;46.008;11.144;2024-03-25T07:56:04;1.40;;;0.60;;
45642;SDS011;31358;46.008;11.144;2024-03-25T07:58:30;0.52;;;0.30;;
45642;SDS011;31358;46.008;11.144;2024-03-25T08:00:56;1.27;;;0.60;;
45642;SDS011;31358;46.008;11.144;2024-03-25T08:03:22;0.77;;;0.45;;
45642;SDS011;31358;46.008;11.144;2024-03-25T08:05:50;1.85;;;0.30;;
45642;SDS011;31358;46.008;11.144;2024-03-25T08:08:15;90.82;;;42.55;;
45642;SDS011;31358;46.008;11.144;2024-03-25T08:10:41;264.05;;;123.63;;
45642;SDS011;31358;46.008;11.144;2024-03-25T08:13:06;338.77;;;151.57;;
45642;SDS011;31358;46.008;11.144;2024-03-25T08:15:32;103.88;;;47.95;;
45642;SDS011;31358;46.008;11.144;2024-03-25T08:17:58;36.97;;;19.75;;
45642;SDS011;31358;46.008;11.144;2024-03-25T08:20:23;20.50;;;10.30;;
45642;SDS011;31358;46.008;11.144;2024-03-25T08:22:49;13.50;;;7.82;;
45642;SDS011;31358;46.008;11.144;2024-03-25T08:25:15;7.32;;;5.97;;
45642;SDS011;31358;46.008;11.144;2024-03-25T08:27:41;4.93;;;3.03;;
45642;SDS011;31358;46.008;11.144;2024-03-25T08:30:07;7.25;;;3.20;;
45642;SDS011;31358;46.008;11.144;2024-03-25T08:32:38;2.90;;;1.42;;
45642;SDS011;31358;46.008;11.144;2024-03-25T08:35:04;2.33;;;1.10;;
45642;SDS011;31358;46.008;11.144;2024-03-25T08:37:30;2.17;;;1.02;;
45642;SDS011;31358;46.008;11.144;2024-03-25T08:39:56;3.65;;;0.85;;
45642;SDS011;31358;46.008;11.144;2024-03-25T08:42:21;3.65;;;0.93;;
45642;SDS011;31358;46.008;11.144;2024-03-25T08:44:47;5.20;;;2.08;;
45642;SDS011;31358;46.008;11.144;2024-03-25T08:47:12;1.77;;;1.10;;
45642;SDS011;31358;46.008;11.144;2024-03-25T08:49:38;5.53;;;1.10;;
45642;SDS011;31358;46.008;11.144;2024-03-25T08:52:04;1.60;;;0.57;;
45642;SDS011;31358;46.008;11.144;2024-03-25T08:54:30;3.25;;;1.20;;
45642;SDS011;31358;46.008;11.144;2024-03-25T08:56:55;1.65;;;0.70;;
45642;SDS011;31358;46.008;11.144;2024-03-25T08:59:21;2.47;;;0.80;;
45642;SDS011;31358;46.008;11.144;2024-03-25T09:01:46;2.05;;;1.00;;
45642;SDS011;31358;46.008;11.144;2024-03-25T09:04:12;1.55;;;0.75;;
45642;SDS011;31358;46.008;11.144;2024-03-25T09:06:38;1.40;;;0.73;;
45642;SDS011;31358;46.008;11.144;2024-03-25T09:09:04;1.27;;;0.57;;
45642;SDS011;31358;46.008;11.144;2024-03-25T09:11:48;16.83;;;8.77;;
45642;SDS011;31358;46.008;11.144;2024-03-25T09:14:14;8.73;;;4.35;;
45642;SDS011;31358;46.008;11.144;2024-03-25T09:16:39;5.90;;;2.15;;
45642;SDS011;31358;46.008;11.144;2024-03-25T09:19:05;2.67;;;1.52;;
45642;SDS011;31358;46.008;11.144;2024-03-25T09:21:30;1.65;;;0.43;;
45642;SDS011;31358;46.008;11.144;2024-03-25T09:23:56;1.50;;;0.65;;
45642;SDS011;31358;46.008;11.144;2024-03-25T09:26:23;0.77;;;0.30;;
45642;SDS011;31358;46.008;11.144;2024-03-25T09:28:49;3.05;;;0.65;;
45642;SDS011;31358;46.008;11.144;2024-03-25T09:31:15;4.32;;;2.13;;
45642;SDS011;31358;46.008;11.144;2024-03-25T09:33:40;5.45;;;2.75;;
45642;SDS011;31358;46.008;11.144;2024-03-25T09:36:06;3.72;;;1.60;;
45642;SDS011;31358;46.008;11.144;2024-03-25T09:38:31;7.45;;;4.38;;
45642;SDS011;31358;46.008;11.144;2024-03-25T09:40:57;6.93;;;2.38;;
45642;SDS011;31358;46.008;11.144;2024-03-25T09:43:23;4.57;;;1.73;;
45642;SDS011;31358;46.008;11.144;2024-03-25T09:45:57;3.80;;;1.60;;
45642;SDS011;31358;46.008;11.144;2024-03-25T09:48:25;5.20;;;1.45;;
45642;SDS011;31358;46.008;11.144;2024-03-25T09:50:55;3.30;;;1.63;;
45642;SDS011;31358;46.008;11.144;2024-03-25T09:53:22;9.18;;;4.55;;
45642;SDS011;31358;46.008;11.144;2024-03-25T09:55:48;9.07;;;3.03;;
45642;SDS011;31358;46.008;11.144;2024-03-25T10:00:54;4.80;;;1.83;;
45642;SDS011;31358;46.008;11.144;2024-03-25T10:03:29;9.32;;;4.22;;
45642;SDS011;31358;46.008;11.144;2024-03-25T10:05:54;55.22;;;29.67;;
45642;SDS011;31358;46.008;11.144;2024-03-25T10:08:20;27.48;;;13.02;;
45642;SDS011;31358;46.008;11.144;2024-03-25T10:10:46;11.70;;;5.18;;
45642;SDS011;31358;46.008;11.144;2024-03-25T10:13:12;4.45;;;1.85;;
45642;SDS011;31358;46.008;11.144;2024-03-25T10:15:38;2.38;;;0.75;;
45642;SDS011;31358;46.008;11.144;2024-03-25T10:18:04;53.30;;;24.17;;
45642;SDS011;31358;46.008;11.144;2024-03-25T10:20:30;13.05;;;4.63;;
45642;SDS011;31358;46.008;11.144;2024-03-25T10:22:55;6.03;;;2.78;;
45642;SDS011;31358;46.008;11.144;2024-03-25T10:25:26;34.78;;;14.23;;
45642;SDS011;31358;46.008;11.144;2024-03-25T10:30:19;8.02;;;3.35;;
45642;SDS011;31358;46.008;11.144;2024-03-25T10:32:45;3.53;;;1.48;;
45642;SDS011;31358;46.008;11.144;2024-03-25T10:35:27;2.17;;;0.70;;
45642;SDS011;31358;46.008;11.144;2024-03-25T10:38:02;2.05;;;0.63;;
45642;SDS011;31358;46.008;11.144;2024-03-25T10:40:36;1.20;;;0.50;;
45642;SDS011;31358;46.008;11.144;2024-03-25T10:43:03;0.80;;;0.30;;
45642;SDS011;31358;46.008;11.144;2024-03-25T10:45:31;2.58;;;0.30;;
45642;SDS011;31358;46.008;11.144;2024-03-25T10:48:03;4.80;;;1.40;;
45642;SDS011;31358;46.008;11.144;2024-03-25T10:50:43;2.10;;;0.50;;
45642;SDS011;31358;46.008;11.144;2024-03-25T10:53:10;1.42;;;0.40;;
45642;SDS011;31358;46.008;11.144;2024-03-25T10:55:36;4.03;;;1.05;;
45642;SDS011;31358;46.008;11.144;2024-03-25T10:58:03;6.43;;;2.30;;
45642;SDS011;31358;46.008;11.144;2024-03-25T11:00:30;0.82;;;0.40;;
45642;SDS011;31358;46.008;11.144;2024-03-25T11:02:58;11.18;;;5.38;;
45642;SDS011;31358;46.008;11.144;2024-03-25T11:05:24;33.53;;;16.98;;
45642;SDS011;31358;46.008;11.144;2024-03-25T11:07:50;30.50;;;15.15;;
45642;SDS011;31358;46.008;11.144;2024-03-25T11:10:16;9.70;;;4.93;;
45642;SDS011;31358;46.008;11.144;2024-03-25T11:12:42;6.82;;;3.42;;
45642;SDS011;31358;46.008;11.144;2024-03-25T11:15:08;12.90;;;4.18;;
45642;SDS011;31358;46.008;11.144;2024-03-25T11:17:35;6.25;;;2.75;;
45642;SDS011;31358;46.008;11.144;2024-03-25T11:20:11;2.53;;;1.10;;
45642;SDS011;31358;46.008;11.144;2024-03-25T11:22:51;3.28;;;1.35;;
45642;SDS011;31358;46.008;11.144;2024-03-25T11:25:18;2.00;;;0.70;;
45642;SDS011;31358;46.008;11.144;2024-03-25T11:27:46;1.17;;;0.52;;
45642;SDS011;31358;46.008;11.144;2024-03-25T11:30:12;0.75;;;0.43;;
45642;SDS011;31358;46.008;11.144;2024-03-25T11:32:46;0.90;;;0.30;;
45642;SDS011;31358;46.008;11.144;2024-03-25T11:35:16;1.25;;;0.45;;
45642;SDS011;31358;46.008;11.144;2024-03-25T11:37:49;3.38;;;1.42;;
45642;SDS011;31358;46.008;11.144;2024-03-25T11:40:17;4.20;;;0.70;;
45642;SDS011;31358;46.008;11.144;2024-03-25T11:42:43;3.30;;;0.50;;
45642;SDS011;31358;46.008;11.144;2024-03-25T11:45:19;0.52;;;0.20;;
45642;SDS011;31358;46.008;11.144;2024-03-25T11:47:46;0.63;;;0.35;;
45642;SDS011;31358;46.008;11.144;2024-03-25T11:50:16;0.98;;;0.28;;
45642;SDS011;31358;46.008;11.144;2024-03-25T11:52:43;0.60;;;0.20;;
45642;SDS011;31358;46.008;11.144;2024-03-25T11:55:10;0.70;;;0.20;;
45642;SDS011;31358;46.008;11.144;2024-03-25T11:57:39;0.43;;;0.20;;
45642;SDS011;31358;46.008;11.144;2024-03-25T12:00:07;0.90;;;0.50;;
45642;SDS011;31358;46.008;11.144;2024-03-25T12:02:36;0.57;;;0.25;;
45642;SDS011;31358;46.008;11.144;2024-03-25T12:05:02;0.30;;;0.15;;
45642;SDS011;31358;46.008;11.144;2024-03-25T12:07:30;2.70;;;0.60;;
45642;SDS011;31358;46.008;11.144;2024-03-25T12:09:58;0.75;;;0.17;;
45642;SDS011;31358;46.008;11.144;2024-03-25T12:12:42;0.55;;;0.20;;
45642;SDS011;31358;46.008;11.144;2024-03-25T12:15:08;0.80;;;0.35;;
45642;SDS011;31358;46.008;11.144;2024-03-25T12:17:34;1.50;;;0.60;;
45642;SDS011;31358;46.008;11.144;2024-03-25T12:20:06;2.03;;;0.40;;
45642;SDS011;31358;46.008;11.144;2024-03-25T12:22:34;0.47;;;0.17;;
45642;SDS011;31358;46.008;11.144;2024-03-25T12:25:04;2.25;;;0.50;;
45642;SDS011;31358;46.008;11.144;2024-03-25T12:27:31;0.15;;;0.13;;
45642;SDS011;31358;46.008;11.144;2024-03-25T12:30:01;0.35;;;0.20;;
45642;SDS011;31358;46.008;11.144;2024-03-25T12:32:36;1.48;;;0.40;;
45642;SDS011;31358;46.008;11.144;2024-03-25T12:35:06;2.67;;;1.05;;
45642;SDS011;31358;46.008;11.144;2024-03-25T12:37:32;2.65;;;0.82;;
45642;SDS011;31358;46.008;11.144;2024-03-25T12:39:58;1.83;;;0.65;;
45642;SDS011;31358;46.008;11.144;2024-03-25T12:42:25;0.90;;;0.40;;
45642;SDS011;31358;46.008;11.144;2024-03-25T12:44:52;2.17;;;0.40;;
45642;SDS011;31358;46.008;11.144;2024-03-25T12:47:19;1.55;;;0.35;;
45642;SDS011;31358;46.008;11.144;2024-03-25T12:49:45;0.52;;;0.20;;
45642;SDS011;31358;46.008;11.144;2024-03-25T12:52:11;3.95;;;0.30;;
45642;SDS011;31358;46.008;11.144;2024-03-25T12:54:37;0.45;;;0.28;;
45642;SDS011;31358;46.008;11.144;2024-03-25T12:57:03;1.02;;;0.38;;
45642;SDS011;31358;46.008;11.144;2024-03-25T12:59:28;1.15;;;0.40;;
45642;SDS011;31358;46.008;11.144;2024-03-25T13:01:54;1.63;;;0.50;;
45642;SDS011;31358;46.008;11.144;2024-03-25T13:04:20;1.02;;;0.50;;
45642;SDS011;31358;46.008;11.144;2024-03-25T13:06:46;2.70;;;0.32;;
45642;SDS011;31358;46.008;11.144;2024-03-25T13:09:12;2.42;;;0.55;;
45642;SDS011;31358;46.008;11.144;2024-03-25T13:11:37;0.47;;;0.30;;
45642;SDS011;31358;46.008;11.144;2024-03-25T13:14:03;0.90;;;0.45;;
45642;SDS011;31358;46.008;11.144;2024-03-25T13:16:32;0.52;;;0.30;;
45642;SDS011;31358;46.008;11.144;2024-03-25T13:18:58;7.35;;;1.25;;
45642;SDS011;31358;46.008;11.144;2024-03-25T13:21:24;1.10;;;0.52;;
45642;SDS011;31358;46.008;11.144;2024-03-25T13:23:50;9.02;;;0.80;;
45642;SDS011;31358;46.008;11.144;2024-03-25T13:26:19;1.52;;;0.55;;
45642;SDS011;31358;46.008;11.144;2024-03-25T13:28:45;0.80;;;0.35;;
45642;SDS011;31358;46.008;11.144;2024-03-25T13:31:11;5.28;;;0.60;;
45642;SDS011;31358;46.008;11.144;2024-03-25T13:33:37;3.72;;;0.47;;
45642;SDS011;31358;46.008;11.144;2024-03-25T13:36:04;1.10;;;0.40;;
45642;SDS011;31358;46.008;11.144;2024-03-25T13:38:31;0.85;;;0.60;;
45642;SDS011;31358;46.008;11.144;2024-03-25T13:40:57;2.03;;;0.45;;
45642;SDS011;31358;46.008;11.144;2024-03-25T13:43:23;1.23;;;0.45;;
45642;SDS011;31358;46.008;11.144;2024-03-25T13:45:48;1.00;;;0.30;;
45642;SDS011;31358;46.008;11.144;2024-03-25T13:48:17;1.85;;;0.57;;
45642;SDS011;31358;46.008;11.144;2024-03-25T13:50:42;3.33;;;0.55;;
45642;SDS011;31358;46.008;11.144;2024-03-25T13:53:08;1.20;;;0.75;;
45642;SDS011;31358;46.008;11.144;2024-03-25T13:55:34;4.97;;;0.70;;
45642;SDS011;31358;46.008;11.144;2024-03-25T13:58:00;3.10;;;0.50;;
45642;SDS011;31358;46.008;11.144;2024-03-25T14:00:26;3.42;;;0.40;;
45642;SDS011;31358;46.008;11.144;2024-03-25T14:02:53;0.75;;;0.35;;
45642;SDS011;31358;46.008;11.144;2024-03-25T14:05:20;2.47;;;0.40;;
45642;SDS011;31358;46.008;11.144;2024-03-25T14:07:46;0.88;;;0.32;;
45642;SDS011;31358;46.008;11.144;2024-03-25T14:10:12;1.08;;;0.40;;
45642;SDS011;31358;46.008;11.144;2024-03-25T14:12:38;0.90;;;0.35;;
45642;SDS011;31358;46.008;11.144;2024-03-25T14:15:04;1.50;;;0.77;;
45642;SDS011;31358;46.008;11.144;2024-03-25T14:17:30;0.85;;;0.43;;
45642;SDS011;31358;46.008;11.144;2024-03-25T14:19:56;4.80;;;0.77;;
45642;SDS011;31358;46.008;11.144;2024-03-25T14:22:22;0.77;;;0.40;;
45642;SDS011;31358;46.008;11.144;2024-03-25T14:24:47;1.25;;;0.60;;
45642;SDS011;31358;46.008;11.144;2024-03-25T14:27:13;0.47;;;0.25;;
45642;SDS011;31358;46.008;11.144;2024-03-25T14:29:39;0.52;;;0.40;;
45642;SDS011;31358;46.008;11.144;2024-03-25T14:32:05;2.00;;;0.75;;
45642;SDS011;31358;46.008;11.144;2024-03-25T14:34:32;1.38;;;0.60;;